Time;durP1;ratioP1;P1;durP2;ratioP2;P2;SDS_P1;SDS_P2;PMS_P1;PMS_P2;Temp;Humidity;BMP_temperature;BMP_pressure;BME280_temperature;BME280_humidity;BME280_pressure;Samples;Min_cycle;Max_cycle;Signal;HPM_P1;HPM_P2
2021/06/08 00:01:18;;;;;;;;;;;;;;;19.73;65.56;101950.28;6247781;28;19917;-79
2021/06/08 00:04:23;;;;;;;;;;;;;;;19.63;65.25;101959.25;6248022;28;19917;-80
2021/06/08 00:07:27;;;;;;;;;;;;;;;19.54;65.73;101955.22;6247854;28;19917;-80
2021/06/08 00:10:30;;;;;;;;;;;;;;;19.41;66.74;101955.56;6246389;28;19999;-80
2021/06/08 00:13:34;;;;;;;;;;;;;;;19.32;67.30;101951.47;6247549;28;19978;-81
2021/06/08 00:16:37;;;;;;;;;;;;;;;19.37;68.62;101948.81;6247199;28;19978;-80
2021/06/08 00:19:42;;;;;;;;;;;;;;;19.30;68.04;101945.34;6246665;28;19917;-80
2021/06/08 00:22:45;;;;;;;;;;;;;;;19.32;68.88;101962.53;6246164;28;20147;-80
2021/06/08 00:25:49;;;;;;;;;;;;;;;19.18;70.99;101933.50;6247302;28;19980;-80
2021/06/08 00:28:52;;;;;;;;;;;;;;;19.31;71.44;101949.78;6246033;28;19975;-80
2021/06/08 00:31:55;;;;;;;;;;;;;;;19.40;72.96;101953.00;6247429;28;19917;-80
2021/06/08 00:35:00;;;;;;;;;;;;;;;19.36;74.76;101958.19;6245931;28;19940;-81
2021/06/08 00:38:04;;;;;;;;;;;;;;;19.39;75.67;101962.44;6245557;28;20227;-80
2021/06/08 00:41:07;;;;;;;;;;;;;;;19.28;75.92;101962.16;6243377;28;19917;-80
2021/06/08 00:44:13;;;;;;;;;;;;;;;19.23;78.63;101964.03;6242275;28;19922;-80
2021/06/08 00:47:16;;;;;;;;;;;;;;;19.16;80.09;101968.84;6241921;28;19918;-80
2021/06/08 00:50:21;;;;;;;;;;;;;;;19.26;79.99;101974.56;6242475;28;20284;-80
2021/06/08 00:53:24;;;;;;;;;;;;;;;19.07;82.20;101970.34;6241738;28;19917;-80
2021/06/08 00:56:28;;;;;;;;;;;;;;;19.07;82.91;101971.19;6243267;28;19957;-80
2021/06/08 00:59:31;;;;;;;;;;;;;;;19.17;83.20;101970.53;6242398;28;20197;-80
2021/06/08 01:02:35;;;;;;;;;;;;;;;19.17;83.93;101970.53;6242936;28;19917;-80
2021/06/08 01:05:40;;;;;;;;;;;;;;;19.12;84.31;101965.75;6242900;28;19918;-80
2021/06/08 01:08:43;;;;;;;;;;;;;;;19.11;84.66;101965.97;6241594;28;19924;-80
2021/06/08 01:11:47;;;;;;;;;;;;;;;19.17;85.49;101973.31;6242232;28;19918;-79
2021/06/08 01:14:50;;;;;;;;;;;;;;;19.06;85.60;101968.66;6242775;28;19953;-80
2021/06/08 01:17:54;;;;;;;;;;;;;;;19.04;87.50;101984.66;6242838;28;19917;-80
2021/06/08 01:21:03;;;;;;;;;;;;;;;18.80;87.47;101983.06;6243009;28;19917;-80
2021/06/08 01:24:09;;;;;;;;;;;;;;;18.94;86.83;101995.50;6242496;28;20219;-80
2021/06/08 01:27:12;;;;;;;;;;;;;;;18.88;88.31;101999.25;6244950;28;19917;-80
2021/06/08 01:30:16;;;;;;;;;;;;;;;18.91;87.54;101993.22;6243412;28;20149;-79
2021/06/08 01:33:21;;;;;;;;;;;;;;;19.00;87.45;101994.53;6241527;28;20262;-79
2021/06/08 01:36:27;;;;;;;;;;;;;;;19.01;88.48;101991.50;6242091;28;19952;-79
2021/06/08 01:39:31;;;;;;;;;;;;;;;18.89;89.22;101995.41;6240724;28;19964;-79
2021/06/08 01:42:35;;;;;;;;;;;;;;;18.97;89.53;101992.25;6241017;28;19918;-79
2021/06/08 01:45:39;;;;;;;;;;;;;;;18.87;89.80;101981.81;6241678;28;19917;-79
2021/06/08 01:48:43;;;;;;;;;;;;;;;18.63;89.49;101992.09;6240413;28;19984;-79
2021/06/08 01:51:59;;;;;;;;;;;;;;;18.72;88.44;101982.31;6240621;28;20248;-79
2021/06/08 01:55:05;;;;;;;;;;;;;;;18.84;88.12;101976.78;6240476;28;20144;-80
2021/06/08 01:58:11;;;;;;;;;;;;;;;18.74;89.61;101977.41;6241222;28;19924;-80
2021/06/08 02:01:19;;;;;;;;;;;;;;;18.72;89.86;101971.25;6240308;28;19917;-80
2021/06/08 02:04:24;;;;;;;;;;;;;;;18.74;90.31;101971.88;6241478;28;19917;-80
2021/06/08 02:07:34;;;;;;;;;;;;;;;18.57;91.25;101965.41;6239881;28;19980;-80
2021/06/08 02:10:41;;;;;;;;;;;;;;;18.57;89.39;101965.41;6241371;28;19917;-80
2021/06/08 02:13:49;;;;;;;;;;;;;;;18.65;89.84;101962.28;6240870;28;19921;-80
2021/06/08 02:16:53;;;;;;;;;;;;;;;18.62;89.90;101957.22;6241026;28;19984;-80
2021/06/08 02:20:01;;;;;;;;;;;;;;;18.59;89.54;101956.88;6240948;28;19980;-80
2021/06/08 02:23:08;;;;;;;;;;;;;;;18.57;90.20;101954.34;6241401;28;19917;-80
2021/06/08 02:26:12;;;;;;;;;;;;;;;18.55;91.24;101970.34;6241029;28;19924;-79
2021/06/08 02:29:16;;;;;;;;;;;;;;;18.45;90.81;101950.75;6240559;28;19917;-79
2021/06/08 02:32:19;;;;;;;;;;;;;;;18.56;92.00;101969.28;6240526;28;19952;-80
2021/06/08 02:35:24;;;;;;;;;;;;;;;18.50;92.43;101964.69;6240267;28;20047;-80
2021/06/08 02:38:30;;;;;;;;;;;;;;;18.51;91.41;101971.06;6240455;28;19964;-80
2021/06/08 02:41:34;;;;;;;;;;;;;;;18.45;92.17;101967.31;6240811;28;19918;-80
2021/06/08 02:44:38;;;;;;;;;;;;;;;18.43;92.27;101969.50;6239568;28;20107;-80
2021/06/08 02:47:42;;;;;;;;;;;;;;;18.50;90.98;101980.44;6240553;28;19921;-80
2021/06/08 02:50:47;;;;;;;;;;;;;;;18.49;90.75;101979.59;6240723;28;19980;-80
2021/06/08 02:53:53;;;;;;;;;;;;;;;18.34;90.64;101979.22;6239639;28;19922;-80
2021/06/08 02:56:57;;;;;;;;;;;;;;;18.47;90.47;101981.75;6239497;28;20228;-80
2021/06/08 03:00:03;;;;;;;;;;;;;;;18.51;90.81;101982.13;6239022;28;20104;-80
2021/06/08 03:03:09;;;;;;;;;;;;;;;18.40;91.04;101983.78;6239649;28;19918;-79
2021/06/08 03:06:14;;;;;;;;;;;;;;;18.37;92.66;101981.50;6239613;28;20100;-80
2021/06/08 03:09:23;;;;;;;;;;;;;;;18.41;92.15;101976.34;6238633;28;19917;-80
2021/06/08 03:12:29;;;;;;;;;;;;;;;18.31;91.76;101976.91;6238819;28;19917;-79
2021/06/08 03:15:35;;;;;;;;;;;;;;;18.29;91.49;101979.09;6241162;28;19972;-80
2021/06/08 03:18:41;;;;;;;;;;;;;;;18.35;91.44;101975.38;6238955;28;19918;-80
2021/06/08 03:21:44;;;;;;;;;;;;;;;18.28;92.18;101980.19;6239948;28;19959;-80
2021/06/08 03:24:50;;;;;;;;;;;;;;;18.34;91.30;101987.50;6239549;28;19980;-80
2021/06/08 03:27:54;;;;;;;;;;;;;;;18.34;92.55;101987.50;6239052;28;19956;-79
2021/06/08 03:30:58;;;;;;;;;;;;;;;18.35;92.29;101989.19;6239234;28;19979;-79
2021/06/08 03:34:02;;;;;;;;;;;;;;;18.36;92.56;102003.84;6238445;28;19964;-79
2021/06/08 03:37:08;;;;;;;;;;;;;;;18.30;93.62;102000.13;6238688;28;20200;-79
2021/06/08 03:40:13;;;;;;;;;;;;;;;18.24;93.67;101997.47;6238273;28;20179;-79
2021/06/08 03:43:17;;;;;;;;;;;;;;;18.34;93.18;101998.56;6238858;28;19917;-79
2021/06/08 03:46:23;;;;;;;;;;;;;;;18.31;93.06;102003.72;6237917;28;19921;-79
2021/06/08 03:49:27;;;;;;;;;;;;;;;18.23;93.86;102002.19;6238828;28;19918;-79
2021/06/08 03:52:30;;;;;;;;;;;;;;;18.26;94.18;102004.44;6239611;28;19952;-79
2021/06/08 03:55:35;;;;;;;;;;;;;;;18.19;94.36;102000.94;6238329;28;20045;-79
2021/06/08 03:58:38;;;;;;;;;;;;;;;18.29;93.68;101992.91;6240966;28;19917;-79
2021/06/08 04:01:43;;;;;;;;;;;;;;;18.20;94.10;101996.28;6242274;28;20200;-79
2021/06/08 04:04:46;;;;;;;;;;;;;;;18.38;93.71;101994.25;6242655;28;19980;-79
2021/06/08 04:07:49;;;;;;;;;;;;;;;18.33;93.96;101999.66;6243181;28;19917;-79
2021/06/08 04:10:56;;;;;;;;;;;;;;;18.39;94.06;101995.91;6243693;28;19917;-79
2021/06/08 04:14:00;;;;;;;;;;;;;;;18.40;94.94;101986.53;6242364;28;19917;-79
2021/06/08 04:17:04;;;;;;;;;;;;;;;18.41;93.30;101985.44;6243760;28;19917;-79
2021/06/08 04:20:10;;;;;;;;;;;;;;;18.36;92.32;101990.84;6243983;28;19924;-79
2021/06/08 04:23:14;;;;;;;;;;;;;;;18.35;92.25;101983.66;6243590;28;19924;-80
2021/06/08 04:26:19;;;;;;;;;;;;;;;18.35;91.98;101988.34;6242897;28;19924;-80
2021/06/08 04:29:22;;;;;;;;;;;;;;;18.30;92.95;101991.00;6244439;28;19917;-80
2021/06/08 04:32:27;;;;;;;;;;;;;;;18.36;92.26;101990.84;6242313;28;20205;-80
2021/06/08 04:35:30;;;;;;;;;;;;;;;18.41;92.05;101987.41;6242714;28;19972;-80
2021/06/08 04:38:37;;;;;;;;;;;;;;;18.28;92.23;101988.47;6243439;28;19996;-79
2021/06/08 04:41:44;;;;;;;;;;;;;;;18.20;92.14;101980.53;6243514;28;19964;-79
2021/06/08 04:44:49;;;;;;;;;;;;;;;18.29;90.87;101981.00;6241221;28;20206;-79
2021/06/08 04:47:54;;;;;;;;;;;;;;;18.35;90.17;101983.66;6241560;28;19917;-79
2021/06/08 04:50:58;;;;;;;;;;;;;;;18.39;90.92;101984.84;6243550;28;19917;-80
2021/06/08 04:54:01;;;;;;;;;;;;;;;18.38;91.62;101977.66;6243076;28;19917;-79
2021/06/08 04:57:07;;;;;;;;;;;;;;;18.38;90.39;101983.19;6243336;28;19921;-80
2021/06/08 05:00:12;;;;;;;;;;;;;;;18.43;90.55;101976.94;6241852;28;19932;-80
2021/06/08 05:03:21;;;;;;;;;;;;;;;18.36;90.02;101974.28;6243753;28;19957;-80
2021/06/08 05:06:27;;;;;;;;;;;;;;;18.37;89.55;101981.50;6242357;28;19960;-80
2021/06/08 05:09:34;;;;;;;;;;;;;;;18.39;89.36;101973.81;6240607;28;19918;-79
2021/06/08 05:12:40;;;;;;;;;;;;;;;18.37;89.70;101975.97;6241768;28;19975;-78
2021/06/08 05:15:45;;;;;;;;;;;;;;;18.38;89.95;101976.81;6242259;28;19953;-80
2021/06/08 05:18:52;;;;;;;;;;;;;;;18.47;89.99;101981.75;6242603;28;19917;-79
2021/06/08 05:21:56;;;;;;;;;;;;;;;18.54;91.10;101971.41;6243135;28;19949;-79
2021/06/08 05:24:59;;;;;;;;;;;;;;;18.57;89.77;101982.00;6242988;28;20147;-81
2021/06/08 05:28:04;;;;;;;;;;;;;;;18.52;89.39;101973.59;6242797;28;19917;-80
2021/06/08 05:31:08;;;;;;;;;;;;;;;18.49;88.20;101974.06;6242203;28;20059;-80
2021/06/08 05:34:12;;;;;;;;;;;;;;;18.65;87.72;101965.03;6242580;28;20157;-80
2021/06/08 05:37:16;;;;;;;;;;;;;;;18.69;87.40;101963.44;6241385;28;19917;-79
2021/06/08 05:40:22;;;;;;;;;;;;;;;18.88;86.91;101971.59;6241894;28;19948;-79
2021/06/08 05:43:27;;;;;;;;;;;;;;;18.95;84.91;101967.59;6241727;28;19917;-79
2021/06/08 05:46:33;;;;;;;;;;;;;;;19.04;84.10;101962.53;6240464;28;19948;-79
2021/06/08 05:49:37;;;;;;;;;;;;;;;18.95;83.88;101958.47;6242147;28;19924;-79
2021/06/08 05:52:41;;;;;;;;;;;;;;;19.01;83.53;101965.78;6241451;28;19989;-80
2021/06/08 05:55:46;;;;;;;;;;;;;;;18.98;83.72;101966.25;6241791;28;19921;-79
2021/06/08 05:58:52;;;;;;;;;;;;;;;19.13;82.66;101958.28;6241954;28;19975;-80
2021/06/08 06:01:56;;;;;;;;;;;;;;;19.28;82.51;101967.69;6241729;28;19952;-79
2021/06/08 06:04:59;;;;;;;;;;;;;;;19.27;81.43;101965.19;6242635;28;19996;-79
2021/06/08 06:08:04;;;;;;;;;;;;;;;19.35;80.61;101962.88;6240952;28;19917;-80
2021/06/08 06:11:09;;;;;;;;;;;;;;;19.63;82.40;101964.81;6239527;28;20223;-81
2021/06/08 06:14:15;;;;;;;;;;;;;;;19.71;80.99;101967.16;6240939;28;19999;-78
2021/06/08 06:17:19;;;;;;;;;;;;;;;19.82;80.76;101969.00;6241237;28;19942;-78
2021/06/08 06:20:23;;;;;;;;;;;;;;;19.83;78.27;101965.16;6239415;28;20197;-77
2021/06/08 06:23:26;;;;;;;;;;;;;;;19.76;77.79;101953.41;6241793;28;19925;-77
2021/06/08 06:26:30;;;;;;;;;;;;;;;19.94;77.08;101949.53;6240156;28;19917;-80
2021/06/08 06:29:35;;;;;;;;;;;;;;;20.05;75.51;101956.09;6240232;28;20226;-82
2021/06/08 06:32:38;;;;;;;;;;;;;;;20.02;74.06;101956.59;6240665;28;19917;-79
2021/06/08 06:35:42;;;;;;;;;;;;;;;19.84;72.73;101958.53;6239005;28;19917;-78
2021/06/08 06:38:48;;;;;;;;;;;;;;;19.78;71.27;101955.91;6240729;28;19917;-77
2021/06/08 06:41:53;;;;;;;;;;;;;;;19.75;66.58;101962.78;6239005;28;20247;-79
2021/06/08 06:44:59;;;;;;;;;;;;;;;19.85;65.42;101962.97;6240990;28;19918;-79
2021/06/08 06:48:04;;;;;;;;;;;;;;;19.75;68.01;101976.63;6239259;28;19940;-81
2021/06/08 06:51:08;;;;;;;;;;;;;;;19.81;69.02;101972.03;6238410;28;19924;-77
2021/06/08 06:54:12;;;;;;;;;;;;;;;20.08;67.83;101977.75;6239549;28;20084;-82
2021/06/08 06:57:15;;;;;;;;;;;;;;;19.93;68.56;101965.31;6240588;28;19924;-82
2021/06/08 07:00:21;;;;;;;;;;;;;;;19.90;67.49;101965.81;6241291;28;19918;-82
2021/06/08 07:03:28;;;;;;;;;;;;;;;19.83;69.95;101976.22;6242307;28;19957;-82
2021/06/08 07:06:32;;;;;;;;;;;;;;;20.15;70.75;101978.41;6275059;28;19968;-82
2021/06/08 07:09:36;;;;;;;;;;;;;;;20.16;68.79;101963.47;6243078;28;19925;-82
2021/06/08 07:12:40;;;;;;;;;;;;;;;20.06;68.96;101969.69;6257989;28;19948;-82
2021/06/08 07:15:46;;;;;;;;;;;;;;;19.90;69.52;101965.81;6242878;28;19972;-82
2021/06/08 07:18:51;;;;;;;;;;;;;;;19.86;70.23;101970.19;6240598;28;19917;-82
2021/06/08 07:21:56;;;;;;;;;;;;;;;19.94;70.09;101961.47;6240058;28;19917;-82
2021/06/08 07:25:00;;;;;;;;;;;;;;;19.93;69.91;101968.09;6241055;28;19917;-82
2021/06/08 07:28:05;;;;;;;;;;;;;;;19.90;71.73;101971.34;6240474;28;19960;-82
2021/06/08 07:31:15;;;;;;;;;;;;;;;20.13;70.69;101970.38;6242137;28;19918;-82
2021/06/08 07:34:23;;;;;;;;;;;;;;;20.15;68.56;101973.72;6243456;28;19989;-82
2021/06/08 07:37:28;;;;;;;;;;;;;;;20.17;69.62;101970.69;6244247;28;20197;-82
2021/06/08 07:40:36;;;;;;;;;;;;;;;20.20;68.66;101965.47;6245537;28;19921;-82
2021/06/08 07:43:44;;;;;;;;;;;;;;;20.51;69.00;101969.56;6243355;28;20239;-82
2021/06/08 07:46:50;;;;;;;;;;;;;;;20.76;69.30;101975.47;6242763;28;19917;-82
2021/06/08 07:49:55;;;;;;;;;;;;;;;20.75;66.65;101972.97;6244897;28;19918;-82
2021/06/08 07:53:01;;;;;;;;;;;;;;;20.59;66.82;101966.38;6244020;28;20282;-82
2021/06/08 07:56:05;;;;;;;;;;;;;;;20.31;66.88;101972.06;6243854;28;20081;-83
2021/06/08 07:59:13;;;;;;;;;;;;;;;20.44;67.14;101966.97;6259147;28;19975;-82
2021/06/08 08:02:21;;;;;;;;;;;;;;;20.47;66.63;101971.16;6244530;28;19918;-82
2021/06/08 08:05:26;;;;;;;;;;;;;;;20.36;66.27;101978.50;6244442;28;19917;-83
2021/06/08 08:08:31;;;;;;;;;;;;;;;20.47;66.33;101966.47;6243890;28;20089;-82
2021/06/08 08:11:36;;;;;;;;;;;;;;;20.32;66.90;101979.25;6244536;28;20223;-81
2021/06/08 08:14:42;;;;;;;;;;;;;;;20.28;66.51;101975.34;6243196;28;20208;-81
2021/06/08 08:17:48;;;;;;;;;;;;;;;20.29;66.45;101971.44;6243079;28;19921;-81
2021/06/08 08:20:56;;;;;;;;;;;;;;;20.30;66.55;101970.38;6243548;28;19976;-81
2021/06/08 08:24:00;;;;;;;;;;;;;;;20.15;68.40;101968.19;6244122;28;20156;-82
2021/06/08 08:27:06;;;;;;;;;;;;;;;19.95;68.64;101970.63;6243948;28;19953;-83
2021/06/08 08:30:12;;;;;;;;;;;;;;;19.79;68.12;101975.06;6242076;28;20172;-80
2021/06/08 08:33:17;;;;;;;;;;;;;;;19.94;69.52;101967.00;6243343;28;19917;-80
2021/06/08 08:36:21;;;;;;;;;;;;;;;20.07;68.27;101974.13;6242423;28;20223;-81
2021/06/08 08:39:24;;;;;;;;;;;;;;;20.09;67.43;101971.09;6241655;28;19953;-81
2021/06/08 08:42:28;;;;;;;;;;;;;;;20.02;68.61;101975.97;6244081;28;19917;-81
2021/06/08 08:45:32;;;;;;;;;;;;;;;19.94;68.38;101972.56;6242929;28;19917;-84
2021/06/08 08:48:38;;;;;;;;;;;;;;;19.91;68.19;101973.06;6244203;28;19917;-82
2021/06/08 08:51:43;;;;;;;;;;;;;;;19.94;68.23;101978.09;6246175;28;19955;-81
2021/06/08 08:54:48;;;;;;;;;;;;;;;19.88;68.04;101979.09;6243823;28;20155;-83
2021/06/08 08:57:52;;;;;;;;;;;;;;;19.87;69.10;101977.41;6253031;28;19948;-81
2021/06/08 09:00:56;;;;;;;;;;;;;;;19.88;67.97;101979.09;6253771;28;19917;-80
2021/06/08 09:04:01;;;;;;;;;;;;;;;20.07;67.23;101982.44;6253900;28;19924;-80
2021/06/08 09:07:04;;;;;;;;;;;;;;;19.99;66.59;101980.94;6253585;28;19917;-81
2021/06/08 09:10:12;;;;;;;;;;;;;;;20.09;68.23;101990.50;6274011;28;19940;-80
2021/06/08 09:13:15;;;;;;;;;;;;;;;20.20;66.54;101975.72;6242304;28;20145;-80
2021/06/08 09:16:19;;;;;;;;;;;;;;;20.26;66.30;101980.28;6242339;28;19917;-80
2021/06/08 09:19:27;;;;;;;;;;;;;;;20.41;66.81;101984.13;6241894;28;20028;-80
2021/06/08 09:22:46;;;;;;;;;;;;;;;20.50;67.40;101982.59;6241933;28;19921;-80
2021/06/08 09:25:51;;;;;;;;;;;;;;;20.45;65.47;101973.34;6242296;28;19917;-81
2021/06/08 09:28:55;;;;;;;;;;;;;;;20.65;65.11;101981.97;6242708;28;19918;-81
2021/06/08 09:32:11;;;;;;;;;;;;;;;20.72;66.35;101979.88;6244251;28;19921;-81
2021/06/08 09:35:17;;;;;;;;;;;;;;;20.81;65.57;101972.75;6241377;28;19917;-81
2021/06/08 09:38:21;;;;;;;;;;;;;;;20.84;64.54;101971.41;6244316;28;19967;-81
2021/06/08 09:41:25;;;;;;;;;;;;;;;20.72;64.28;101971.53;6241320;28;19921;-81
2021/06/08 09:44:30;;;;;;;;;;;;;;;20.61;64.52;101966.94;6242215;28;19924;-81
2021/06/08 09:47:33;;;;;;;;;;;;;;;20.76;65.49;101964.38;6243520;28;19918;-82
2021/06/08 09:50:40;;;;;;;;;;;;;;;20.77;63.89;101960.50;6241967;28;19918;-81
2021/06/08 09:53:43;;;;;;;;;;;;;;;20.74;63.75;101966.56;6240872;28;19923;-81
2021/06/08 09:56:47;;;;;;;;;;;;;;;20.42;64.05;101962.78;6255648;28;20144;-82
2021/06/08 09:59:52;;;;;;;;;;;;;;;20.82;64.35;101968.91;6242134;28;19924;-81
2021/06/08 10:02:55;;;;;;;;;;;;;;;20.80;63.91;101957.19;6244342;28;19928;-81
2021/06/08 10:06:05;;;;;;;;;;;;;;;20.95;64.22;101962.97;6243257;28;19953;-81
2021/06/08 10:09:10;;;;;;;;;;;;;;;21.05;63.80;101957.53;6241930;28;19959;-81
2021/06/08 10:12:17;;;;;;;;;;;;;;;20.96;63.69;101952.69;6244380;28;19918;-81
2021/06/08 10:15:21;;;;;;;;;;;;;;;20.64;63.36;101955.34;6246720;28;19917;-81
2021/06/08 10:18:25;;;;;;;;;;;;;;;20.99;63.88;101944.69;6242078;28;20101;-80
2021/06/08 10:21:37;;;;;;;;;;;;;;;21.14;62.98;101950.44;6241111;28;20143;-80
2021/06/08 10:24:40;;;;;;;;;;;;;;;21.12;62.87;101946.25;6239629;28;19918;-82
2021/06/08 10:27:44;;;;;;;;;;;;;;;21.24;63.45;101955.25;6240897;28;20205;-81
2021/06/08 10:30:49;;;;;;;;;;;;;;;21.20;62.55;101949.41;6241408;28;19972;-81
2021/06/08 10:34:10;;;;;;;;;;;;;;;21.35;60.84;101942.34;6241375;28;19960;-81
2021/06/08 10:37:17;;;;;;;;;;;;;;;21.40;62.59;101942.38;6241384;28;19924;-82
2021/06/08 10:40:21;;;;;;;;;;;;;;;21.17;60.85;101938.84;6241492;28;19917;-80
2021/06/08 10:43:27;;;;;;;;;;;;;;;21.20;61.83;101938.31;6241208;28;19957;-80
2021/06/08 10:46:33;;;;;;;;;;;;;;;21.21;60.39;101939.97;6239826;28;19960;-80
2021/06/08 10:49:38;;;;;;;;;;;;;;;21.25;60.05;101934.75;6241579;28;19917;-83
2021/06/08 10:52:46;;;;;;;;;;;;;;;21.35;59.69;101934.00;6240877;28;19917;-81
2021/06/08 10:55:50;;;;;;;;;;;;;;;21.29;59.65;101929.53;6241077;28;19952;-81
2021/06/08 10:58:55;;;;;;;;;;;;;;;21.33;60.84;101919.56;6241742;28;19918;-81
2021/06/08 11:01:58;;;;;;;;;;;;;;;21.61;59.59;101927.59;6241138;28;19945;-81
2021/06/08 11:05:03;;;;;;;;;;;;;;;21.69;60.15;101927.13;6241405;28;19922;-81
2021/06/08 11:08:09;;;;;;;;;;;;;;;21.47;59.55;101929.16;6243566;28;19918;-81
2021/06/08 11:11:13;;;;;;;;;;;;;;;21.30;57.97;101920.06;6245981;28;19917;-81
2021/06/08 11:14:56;;;;;;;;;;;;;;;21.46;59.04;101908.88;6245105;28;19980;-80
2021/06/08 11:17:59;;;;;;;;;;;;;;;21.46;58.16;101914.44;6244997;28;20006;-81
2021/06/08 11:21:21;;;;;;;;;;;;;;;21.55;59.28;101923.09;6245662;28;19996;-81
2021/06/08 11:24:35;;;;;;;;;;;;;;;21.53;58.49;101919.75;6244470;28;19918;-81
2021/06/08 11:27:53;;;;;;;;;;;;;;;21.59;60.15;101908.44;6245735;28;19976;-80
2021/06/08 11:30:58;;;;;;;;;;;;;;;21.69;61.12;101916.00;6244915;28;19918;-80
2021/06/08 11:34:03;;;;;;;;;;;;;;;21.59;60.42;101913.16;6245034;28;19964;-81
2021/06/08 11:37:33;;;;;;;;;;;;;;;21.57;61.10;101904.25;6245439;28;20196;-81
2021/06/08 11:40:55;;;;;;;;;;;;;;;21.49;61.52;101915.84;6244689;28;19949;-81
2021/06/08 11:44:01;;;;;;;;;;;;;;;21.65;60.97;101903.75;6244003;28;20192;-81
2021/06/08 11:47:05;;;;;;;;;;;;;;;21.74;60.99;101904.94;6245140;28;19952;-81
2021/06/08 11:50:10;;;;;;;;;;;;;;;21.83;61.79;101908.88;6245679;28;19976;-81
2021/06/08 11:53:16;;;;;;;;;;;;;;;21.87;62.49;101907.31;6247318;28;19918;-80
2021/06/08 11:56:19;;;;;;;;;;;;;;;21.92;62.13;101912.91;6245777;28;19924;-81
2021/06/08 11:59:26;;;;;;;;;;;;;;;22.16;61.41;101911.38;6245302;28;19984;-81
2021/06/08 12:02:36;;;;;;;;;;;;;;;22.18;61.51;101911.13;6244353;28;20184;-81
2021/06/08 12:05:42;;;;;;;;;;;;;;;22.36;60.42;101914.31;6243193;28;20215;-81
2021/06/08 12:08:46;;;;;;;;;;;;;;;22.22;60.50;101907.53;6244191;28;20226;-80
2021/06/08 12:11:49;;;;;;;;;;;;;;;22.26;59.90;101903.09;6244099;28;19917;-81
2021/06/08 12:14:56;;;;;;;;;;;;;;;22.18;59.94;101900.84;6244573;28;19918;-81
2021/06/08 12:18:07;;;;;;;;;;;;;;;22.24;60.50;101905.31;6242773;28;20216;-81
2021/06/08 12:21:11;;;;;;;;;;;;;;;22.15;60.04;101906.94;6244556;28;20116;-81
2021/06/08 12:24:18;;;;;;;;;;;;;;;22.31;60.18;101905.09;6243248;28;20104;-81
2021/06/08 12:27:32;;;;;;;;;;;;;;;22.32;60.31;101906.75;6243282;28;19924;-81
2021/06/08 12:30:37;;;;;;;;;;;;;;;22.21;60.10;101905.84;6243013;28;19917;-81
2021/06/08 12:33:41;;;;;;;;;;;;;;;22.09;62.30;101902.44;6243667;28;19979;-81
2021/06/08 12:36:44;;;;;;;;;;;;;;;22.09;60.25;101908.00;6243967;28;19917;-81
2021/06/08 12:39:51;;;;;;;;;;;;;;;22.17;60.23;101899.16;6242847;28;20172;-82
2021/06/08 12:42:59;;;;;;;;;;;;;;;22.00;60.01;101894.88;6244094;28;20203;-81
2021/06/08 12:46:05;;;;;;;;;;;;;;;21.92;60.11;101896.22;6243513;28;19924;-82
2021/06/08 12:49:09;;;;;;;;;;;;;;;22.21;60.79;101889.16;6242384;28;19918;-81
2021/06/08 12:52:16;;;;;;;;;;;;;;;22.50;59.28;101891.53;6243982;28;19917;-82
2021/06/08 12:55:19;;;;;;;;;;;;;;;22.24;59.50;101894.19;6244841;28;19941;-82
2021/06/08 12:58:25;;;;;;;;;;;;;;;22.47;59.61;101892.13;6244528;28;19952;-81
2021/06/08 13:01:41;;;;;;;;;;;;;;;22.61;59.89;101876.59;6243268;28;19955;-80
2021/06/08 13:04:45;;;;;;;;;;;;;;;22.62;58.39;101873.59;6242015;28;20180;-80
2021/06/08 13:07:50;;;;;;;;;;;;;;;22.87;58.60;101870.03;6242083;28;19917;-82
2021/06/08 13:10:53;;;;;;;;;;;;;;;22.62;58.96;101869.94;6242931;28;19917;-82
2021/06/08 13:14:05;;;;;;;;;;;;;;;22.42;58.84;101868.72;6243231;28;19917;-82
2021/06/08 13:17:21;;;;;;;;;;;;;;;22.84;59.16;101870.59;6242280;28;19932;-82
2021/06/08 13:20:28;;;;;;;;;;;;;;;23.03;57.59;101863.41;6242189;28;19925;-82
2021/06/08 13:23:32;;;;;;;;;;;;;;;22.79;57.76;101856.66;6240824;28;19917;-82
2021/06/08 13:26:35;;;;;;;;;;;;;;;22.72;57.99;101867.22;6241877;28;20205;-82
2021/06/08 13:29:39;;;;;;;;;;;;;;;22.79;57.84;101876.13;6242946;28;20096;-82
2021/06/08 13:32:44;;;;;;;;;;;;;;;22.83;57.49;101863.38;6242421;28;19940;-82
2021/06/08 13:35:52;;;;;;;;;;;;;;;23.03;56.69;101853.09;6240567;28;20243;-82
2021/06/08 13:39:07;;;;;;;;;;;;;;;23.16;55.43;101859.25;6242825;28;19956;-82
2021/06/08 13:42:14;;;;;;;;;;;;;;;23.22;54.85;101850.63;6243290;28;19953;-80
2021/06/08 13:45:27;;;;;;;;;;;;;;;23.19;56.07;101858.72;6241135;28;19991;-81
2021/06/08 13:48:34;;;;;;;;;;;;;;;23.27;54.87;101863.69;6240976;28;20120;-81
2021/06/08 13:51:37;;;;;;;;;;;;;;;23.31;55.11;101854.53;6240334;28;19917;-81
2021/06/08 13:54:40;;;;;;;;;;;;;;;23.26;55.56;101851.75;6242898;28;19917;-81
2021/06/08 13:57:48;;;;;;;;;;;;;;;23.50;55.23;101844.53;6241246;28;19940;-81
2021/06/08 14:01:02;;;;;;;;;;;;;;;25.20;50.43;101837.81;6243789;28;19932;-81
2021/06/08 14:04:10;;;;;;;;;;;;;;;27.76;44.08;101835.78;6241254;28;20272;-82
2021/06/08 14:07:15;;;;;;;;;;;;;;;28.84;41.03;101834.19;6241404;28;19917;-82
2021/06/08 14:10:19;;;;;;;;;;;;;;;26.22;45.27;101844.19;6243517;28;19917;-83
2021/06/08 14:13:42;;;;;;;;;;;;;;;26.00;47.39;101833.50;6268165;28;20208;-82
2021/06/08 14:17:09;;;;;;;;;;;;;;;25.09;48.86;101825.06;6242499;28;19917;-83
2021/06/08 14:20:14;;;;;;;;;;;;;;;24.69;50.15;101826.97;6243033;28;19917;-83
2021/06/08 14:23:32;;;;;;;;;;;;;;;24.64;50.04;101829.78;6243920;28;19928;-82
2021/06/08 14:26:35;;;;;;;;;;;;;;;24.68;51.35;101825.28;6240092;28;20212;-82
2021/06/08 14:29:39;;;;;;;;;;;;;;;24.21;51.23;101813.78;6239800;28;19917;-81
2021/06/08 14:32:43;;;;;;;;;;;;;;;24.29;49.76;101821.56;6240477;28;20079;-82
2021/06/08 14:35:48;;;;;;;;;;;;;;;24.41;49.99;101824.88;6241974;28;19917;-83
2021/06/08 14:38:51;;;;;;;;;;;;;;;24.32;49.87;101815.41;6243110;28;19917;-82
2021/06/08 14:41:55;;;;;;;;;;;;;;;24.88;48.45;101813.22;6240951;28;19924;-82
2021/06/08 14:44:58;;;;;;;;;;;;;;;25.13;47.06;101820.56;6239104;28;19917;-79
2021/06/08 14:48:02;;;;;;;;;;;;;;;25.09;46.63;101809.13;6238483;28;19917;-78
2021/06/08 14:51:09;;;;;;;;;;;;;;;25.79;47.28;101813.28;6239722;28;19917;-78
2021/06/08 14:54:12;;;;;;;;;;;;;;;25.07;48.64;101816.13;6238679;28;19917;-78
2021/06/08 14:57:16;;;;;;;;;;;;;;;24.53;48.66;101816.97;6239683;28;19921;-79
2021/06/08 15:00:20;;;;;;;;;;;;;;;24.94;49.03;101805.59;6238877;28;19917;-77
2021/06/08 15:03:23;;;;;;;;;;;;;;;24.85;50.13;101809.03;6242221;28;19917;-79
2021/06/08 15:06:29;;;;;;;;;;;;;;;24.66;50.84;101808.00;6241010;28;19924;-79
2021/06/08 15:09:33;;;;;;;;;;;;;;;24.58;51.49;101816.97;6241023;28;19928;-79
2021/06/08 15:12:36;;;;;;;;;;;;;;;24.61;51.21;101808.03;6240136;28;19992;-79
2021/06/08 15:15:41;;;;;;;;;;;;;;;24.32;52.15;101798.66;6238607;28;20104;-78
2021/06/08 15:18:45;;;;;;;;;;;;;;;24.67;51.28;101812.47;6239950;28;19924;-78
2021/06/08 15:21:52;;;;;;;;;;;;;;;24.68;51.12;101797.38;6240909;28;19917;-78
2021/06/08 15:24:56;;;;;;;;;;;;;;;24.41;51.48;101808.13;6239823;28;19923;-78
2021/06/08 15:27:59;;;;;;;;;;;;;;;24.40;51.96;101812.03;6239246;28;20268;-79
2021/06/08 15:31:03;;;;;;;;;;;;;;;24.30;51.38;101812.06;6240645;28;19917;-79
2021/06/08 15:34:07;;;;;;;;;;;;;;;24.47;51.84;101812.56;6239888;28;19960;-79
2021/06/08 15:37:16;;;;;;;;;;;;;;;24.36;51.40;101816.53;6239919;28;19940;-79
2021/06/08 15:40:20;;;;;;;;;;;;;;;24.13;52.07;101814.38;6240537;28;19918;-79
2021/06/08 15:43:23;;;;;;;;;;;;;;;23.98;52.08;101814.38;6238842;28;19985;-79
2021/06/08 15:46:27;;;;;;;;;;;;;;;24.24;52.16;101818.81;6240910;28;20051;-79
2021/06/08 15:49:31;;;;;;;;;;;;;;;24.46;51.98;101813.69;6240317;28;19924;-79
2021/06/08 15:52:36;;;;;;;;;;;;;;;24.49;51.24;101804.75;6238973;28;20250;-80